Terminal Aerodrome Forecast
Issued by NWS Charleston, SC

Home | Current Version | Previous Version | Text Only | Print | Product List | Glossary On
Versions: 1 2 3 4 5 6 7 8 9 10 11 12 13 14 15 16 17 18 19
465
FTUS42 KCHS 252343 CCB
TAFCHS
TAF COR
KCHS 252343Z 2600/2624 VRB04KT P6SM VCSH FEW015 OVC140
     FM260200 VRB04KT P6SM SCT010 BKN150
      TEMPO 2609/2613 SCT008 BKN015
     FM261300 03008KT P6SM SCT020 BKN150
     FM261800 08007KT P6SM BKN040=

USA.gov is the U.S. government's official web portal to all federal, state and local government web resources and services.